Time;durP1;ratioP1;P1;durP2;ratioP2;P2;SDS_P1;SDS_P2;PMS_P1;PMS_P2;Temp;Humidity;BMP_temperature;BMP_pressure;BME280_temperature;BME280_humidity;BME280_pressure;Samples;Min_cycle;Max_cycle;Signal;HPM_P1;HPM_P2
2021/03/15 03:45:45;;;;;;;11.73;7.43;;;6.30;73.70;;;;;;5451641;24;20618;-72
2021/03/15 03:48:11;;;;;;;12.02;6.90;;;6.30;73.70;;;;;;4710777;30;20045;-73
2021/03/15 03:50:37;;;;;;;16.27;9.52;;;6.20;73.80;;;;;;4720115;30;20092;-73
2021/03/15 03:53:07;;;;;;;23.45;11.15;;;6.20;73.90;;;;;;4725746;30;20033;-73
2021/03/15 03:56:06;;;;;;;12.00;7.07;;;6.30;74.00;;;;;;4727116;30;20048;-72
2021/03/15 03:58:39;;;;;;;10.45;6.18;;;6.30;73.80;;;;;;4712028;30;20116;-73
2021/03/15 04:01:07;;;;;;;10.20;6.60;;;6.30;73.60;;;;;;4721320;30;20036;-73
2021/03/15 04:03:35;;;;;;;9.68;6.47;;;6.30;73.60;;;;;;4721609;30;20174;-73
2021/03/15 04:06:05;;;;;;;15.38;7.20;;;6.30;73.60;;;;;;4727247;30;20040;-72
2021/03/15 04:08:36;;;;;;;7.30;4.90;;;6.30;73.60;;;;;;4705964;30;20248;-73
2021/03/15 04:11:03;;;;;;;9.63;5.82;;;6.30;73.50;;;;;;4727049;30;20088;-73
2021/03/15 04:13:30;;;;;;;;;;;6.40;73.30;;;;;;4726276;30;20096;-73
2021/03/15 04:15:56;;;;;;;;;;;6.40;73.60;;;;;;4727508;30;19926;-73
2021/03/15 04:18:26;;;;;;;13.87;6.00;;;6.40;73.60;;;;;;4721154;30;19931;-73
2021/03/15 04:20:58;;;;;;;13.52;5.35;;;6.40;73.60;;;;;;4711392;30;20161;-72
2021/03/15 04:23:33;;;;;;;9.00;5.93;;;6.40;73.70;;;;;;4721895;30;20071;-73
2021/03/15 04:26:00;;;;;;;8.32;5.60;;;6.50;73.60;;;;;;4725561;30;20059;-73
2021/03/15 04:28:28;;;;;;;8.05;5.20;;;6.40;73.60;;;;;;4713223;30;20323;-73
2021/03/15 04:30:55;;;;;;;11.90;6.30;;;6.50;73.50;;;;;;4726724;30;20029;-73
2021/03/15 04:33:23;;;;;;;;;;;6.50;73.30;;;;;;4726049;30;20036;-73
2021/03/15 04:35:49;;;;;;;10.38;5.80;;;6.60;73.00;;;;;;4726864;30;20032;-73
2021/03/15 04:38:15;;;;;;;9.13;5.22;;;6.60;73.00;;;;;;4727044;30;20045;-73
2021/03/15 04:40:48;;;;;;;8.60;5.60;;;6.60;73.00;;;;;;4716275;30;20087;-73
2021/03/15 04:43:15;;;;;;;8.88;5.78;;;6.60;72.70;;;;;;4720357;30;20053;-73
2021/03/15 04:45:45;;;;;;;11.65;6.13;;;6.50;72.90;;;;;;4729931;30;20032;-73
2021/03/15 04:48:25;;;;;;;8.13;5.47;;;6.60;72.90;;;;;;4714110;30;20041;-73
2021/03/15 04:51:00;;;;;;;9.02;5.43;;;6.50;72.70;;;;;;4711427;30;20048;-73
2021/03/15 04:53:28;;;;;;;11.02;5.32;;;6.60;72.50;;;;;;4730219;30;20035;-73
2021/03/15 04:55:57;;;;;;;8.63;5.38;;;6.70;72.40;;;;;;4738119;30;20028;-73
2021/03/15 04:58:24;;;;;;;7.38;5.13;;;6.70;72.40;;;;;;4728878;30;20105;-73
2021/03/15 05:00:55;;;;;;;10.27;6.40;;;6.70;72.30;;;;;;4716963;30;20330;-73
2021/03/15 05:03:22;;;;;;;10.77;5.80;;;6.80;72.20;;;;;;4738280;30;20033;-73
2021/03/15 05:05:50;;;;;;;11.00;6.28;;;6.70;71.90;;;;;;4738397;30;20048;-73
2021/03/15 05:08:20;;;;;;;8.82;6.15;;;6.80;72.00;;;;;;4726873;30;20025;-73
2021/03/15 05:10:46;;;;;;;8.73;5.63;;;6.70;71.90;;;;;;4711307;30;20309;-73
2021/03/15 05:13:13;;;;;;;9.30;5.63;;;6.80;71.70;;;;;;4732654;30;20059;-73
2021/03/15 05:15:39;;;;;;;11.85;5.47;;;6.70;71.80;;;;;;4709567;30;20039;-73
2021/03/15 05:18:10;;;;;;;11.10;6.80;;;6.70;72.00;;;;;;4713638;30;20033;-73
2021/03/15 05:20:37;;;;;;;7.68;5.93;;;6.60;72.10;;;;;;4742933;30;20032;-73
2021/03/15 05:23:06;;;;;;;11.63;6.05;;;6.60;72.20;;;;;;4734691;30;20029;-73
2021/03/15 05:25:32;;;;;;;8.20;5.75;;;6.60;72.30;;;;;;4713933;30;20096;-73
2021/03/15 05:28:00;;;;;;;13.63;6.15;;;6.70;72.00;;;;;;4731703;30;20029;-73
2021/03/15 05:30:27;;;;;;;12.32;6.03;;;6.70;71.70;;;;;;4725460;30;20047;-73
2021/03/15 05:32:54;;;;;;;15.23;5.45;;;6.70;71.40;;;;;;4735530;30;20052;-74
2021/03/15 05:35:21;;;;;;;12.18;6.03;;;6.60;71.40;;;;;;4713548;30;20045;-74
2021/03/15 05:37:48;;;;;;;8.95;6.35;;;6.70;71.40;;;;;;4713258;30;20363;-74
2021/03/15 05:40:21;;;;;;;;;;;6.80;71.10;;;;;;4714666;30;20048;-73
2021/03/15 05:42:59;;;;;;;9.85;6.25;;;6.80;70.90;;;;;;4725753;30;20228;-73
2021/03/15 05:45:59;;;;;;;11.43;5.82;;;6.70;70.90;;;;;;4706299;30;20029;-73
2021/03/15 05:48:51;;;;;;;7.38;5.45;;;6.80;70.80;;;;;;4719797;30;20033;-74
2021/03/15 05:51:47;;;;;;;12.07;6.32;;;6.80;70.70;;;;;;4719122;30;20021;-73
2021/03/15 05:54:48;;;;;;;8.38;6.65;;;6.80;70.90;;;;;;4721979;30;20305;-73
2021/03/15 05:57:46;;;;;;;8.25;6.32;;;6.80;71.10;;;;;;4706695;30;20316;-73
2021/03/15 06:00:49;;;;;;;9.90;7.28;;;6.70;71.30;;;;;;4726017;30;20107;-73
2021/03/15 06:03:35;;;;;;;12.43;6.75;;;6.70;71.20;;;;;;4725073;30;20036;-73
2021/03/15 06:06:05;;;;;;;13.90;8.02;;;6.80;71.40;;;;;;4724730;30;20088;-73
2021/03/15 06:08:38;;;;;;;12.82;7.25;;;6.80;71.30;;;;;;4728758;30;20025;-73
2021/03/15 06:11:05;;;;;;;11.73;6.82;;;6.70;71.30;;;;;;4729065;30;20033;-73
2021/03/15 06:13:32;;;;;;;9.68;7.40;;;6.60;71.40;;;;;;4696139;30;20320;-73
2021/03/15 06:16:00;;;;;;;12.32;6.95;;;6.70;71.60;;;;;;4710293;30;20209;-72
2021/03/15 06:18:28;;;;;;;10.75;6.38;;;6.60;71.60;;;;;;4722337;30;20029;-74
2021/03/15 06:20:54;;;;;;;12.20;7.50;;;6.60;71.50;;;;;;4728887;30;20104;-73
2021/03/15 06:23:20;;;;;;;14.65;7.05;;;6.60;71.70;;;;;;4721987;30;20072;-72
2021/03/15 06:25:48;;;;;;;12.60;7.55;;;6.60;71.80;;;;;;4714341;30;20030;-73
2021/03/15 06:28:16;;;;;;;11.70;7.55;;;6.50;72.30;;;;;;4710969;30;20225;-72
2021/03/15 06:30:43;;;;;;;12.85;8.70;;;6.60;72.50;;;;;;4713982;30;20316;-73
2021/03/15 06:33:09;;;;;;;10.48;7.25;;;6.60;72.60;;;;;;4724396;30;20045;-71
2021/03/15 06:35:38;;;;;;;17.53;7.80;;;6.70;72.40;;;;;;4712110;30;20347;-72
2021/03/15 06:38:05;;;;;;;13.20;7.80;;;6.70;72.60;;;;;;4720144;30;20037;-73
2021/03/15 06:40:33;;;;;;;16.13;7.90;;;6.80;72.60;;;;;;4708476;30;20037;-74
2021/03/15 06:43:01;;;;;;;15.38;7.65;;;6.90;72.50;;;;;;4725543;30;20233;-72
2021/03/15 06:45:27;;;;;;;12.93;7.47;;;7.10;72.40;;;;;;4718166;30;20060;-73
2021/03/15 06:47:54;;;;;;;15.32;7.65;;;7.20;71.80;;;;;;4706140;30;20037;-73
2021/03/15 06:50:20;;;;;;;14.23;7.25;;;7.30;71.50;;;;;;4704003;30;20034;-72
2021/03/15 06:53:02;;;;;;;18.60;8.70;;;7.40;71.30;;;;;;4720768;30;20100;-73
2021/03/15 06:55:36;;;;;;;13.13;7.63;;;7.40;70.90;;;;;;4701678;30;20309;-73
2021/03/15 06:58:28;;;;;;;11.40;7.85;;;7.40;70.80;;;;;;4720822;30;20324;-72
2021/03/15 07:01:10;;;;;;;10.95;7.72;;;7.50;70.60;;;;;;4637327;30;20090;-73
2021/03/15 07:03:37;;;;;;;15.80;7.78;;;7.50;70.40;;;;;;4636736;30;20083;-72
2021/03/15 07:06:04;;;;;;;15.35;8.18;;;7.70;70.00;;;;;;4634931;30;20055;-73
2021/03/15 07:08:30;;;;;;;12.90;7.88;;;7.60;69.80;;;;;;4648175;30;20306;-72
2021/03/15 07:10:56;;;;;;;13.93;8.02;;;7.70;69.60;;;;;;4653722;30;20034;-72
2021/03/15 07:13:24;;;;;;;15.10;8.38;;;7.70;69.50;;;;;;4657072;30;20257;-73
2021/03/15 07:15:54;;;;;;;11.90;8.48;;;7.80;69.50;;;;;;4657131;30;20053;-73
2021/03/15 07:18:22;;;;;;;15.75;8.55;;;7.90;69.50;;;;;;4651549;30;20089;-72
2021/03/15 07:20:55;;;;;;;12.52;8.68;;;7.90;69.20;;;;;;4638877;30;20424;-73
2021/03/15 07:23:42;;;;;;;19.08;10.20;;;7.90;69.10;;;;;;4652252;30;20049;-72
2021/03/15 07:26:13;;;;;;;15.40;9.30;;;8.00;69.10;;;;;;4656177;30;20058;-73
2021/03/15 07:28:44;;;;;;;15.27;10.55;;;8.00;68.90;;;;;;4655782;30;20094;-72
2021/03/15 07:31:28;;;;;;;15.45;9.07;;;8.10;68.80;;;;;;4637131;30;20039;-73
2021/03/15 07:33:56;;;;;;;13.82;9.50;;;8.10;69.00;;;;;;4655909;30;20342;-73
2021/03/15 07:36:29;;;;;;;14.90;8.63;;;8.20;68.70;;;;;;4656453;30;20074;-73
2021/03/15 07:38:56;;;;;;;17.98;8.77;;;8.30;68.20;;;;;;4720805;30;20049;-72
2021/03/15 07:41:23;;;;;;;12.38;9.23;;;8.30;67.70;;;;;;4708454;30;20025;-73
2021/03/15 07:43:51;;;;;;;11.98;8.90;;;8.30;68.00;;;;;;4726800;30;20025;-73
2021/03/15 07:46:20;;;;;;;11.82;8.20;;;8.40;67.70;;;;;;4709241;30;20287;-73
2021/03/15 07:48:46;;;;;;;15.93;8.82;;;8.50;67.90;;;;;;4726559;30;20060;-73
2021/03/15 07:51:12;;;;;;;11.10;7.18;;;8.50;66.90;;;;;;4723403;30;20204;-73
2021/03/15 07:53:39;;;;;;;13.30;8.15;;;8.60;66.50;;;;;;4731204;30;20264;-73
2021/03/15 07:56:07;;;;;;;15.10;8.45;;;8.70;66.50;;;;;;4716157;30;20045;-73
2021/03/15 07:58:38;;;;;;;10.60;8.05;;;8.80;66.20;;;;;;4727337;30;20040;-73
2021/03/15 08:01:05;;;;;;;9.60;7.50;;;8.80;65.40;;;;;;4710906;30;20037;-73
2021/03/15 08:03:31;;;;;;;13.93;7.93;;;8.90;66.00;;;;;;4729079;30;20107;-73
2021/03/15 08:05:59;;;;;;;14.00;8.10;;;9.00;65.00;;;;;;4726670;30;20044;-73
2021/03/15 08:08:25;;;;;;;12.75;8.63;;;9.10;64.70;;;;;;4704367;30;20040;-73
2021/03/15 08:10:52;;;;;;;11.40;8.15;;;9.20;64.20;;;;;;4733136;30;20036;-73
2021/03/15 08:13:24;;;;;;;11.47;8.47;;;9.20;63.30;;;;;;4720378;30;20151;-73
2021/03/15 08:15:51;;;;;;;15.48;7.78;;;9.30;63.50;;;;;;4710221;30;20041;-73
2021/03/15 08:18:29;;;;;;;10.23;8.07;;;9.40;62.70;;;;;;4715024;30;20052;-74
2021/03/15 08:21:04;;;;;;;12.15;7.85;;;9.50;62.60;;;;;;4707263;30;20068;-74
2021/03/15 08:23:41;;;;;;;13.95;8.55;;;9.60;62.70;;;;;;4709456;30;20052;-74
2021/03/15 08:26:09;;;;;;;13.63;7.80;;;9.70;61.80;;;;;;4706761;30;20040;-74
2021/03/15 08:28:36;;;;;;;7.93;6.55;;;9.80;61.60;;;;;;4702100;30;20045;-74
2021/03/15 08:31:22;;;;;;;9.52;7.57;;;10.00;60.70;;;;;;4711113;30;20033;-74
2021/03/15 08:33:50;;;;;;;11.90;7.25;;;10.10;60.30;;;;;;4707930;30;20043;-74
2021/03/15 08:36:16;;;;;;;;;;;10.00;60.10;;;;;;4708387;30;20040;-74
2021/03/15 08:38:42;;;;;;;14.03;7.17;;;10.10;59.80;;;;;;4717856;30;20090;-74
2021/03/15 08:41:09;;;;;;;13.07;8.80;;;10.20;60.40;;;;;;4718195;30;20040;-74
2021/03/15 08:43:46;;;;;;;11.15;7.75;;;10.40;60.00;;;;;;4715653;30;20075;-74
2021/03/15 08:46:14;;;;;;;9.20;7.13;;;10.40;59.60;;;;;;4728898;30;20351;-74
2021/03/15 08:48:40;;;;;;;10.70;7.25;;;10.50;59.40;;;;;;4716296;30;20255;-74
2021/03/15 08:51:10;;;;;;;10.23;6.60;;;10.60;59.30;;;;;;4726245;30;20045;-74
2021/03/15 08:53:40;;;;;;;11.98;6.95;;;10.70;58.40;;;;;;4724140;30;20041;-74
2021/03/15 08:56:31;;;;;;;9.13;6.53;;;10.80;57.30;;;;;;4715041;30;20185;-74
2021/03/15 08:58:59;;;;;;;9.43;6.47;;;10.70;57.00;;;;;;4725799;30;20104;-74
2021/03/15 09:01:27;;;;;;;8.07;5.85;;;10.80;56.80;;;;;;4716952;30;20088;-74
2021/03/15 09:04:04;;;;;;;7.85;5.60;;;10.90;56.90;;;;;;4723934;30;20265;-74
2021/03/15 09:06:41;;;;;;;10.55;6.90;;;10.90;56.50;;;;;;4716162;30;20096;-73
2021/03/15 09:09:33;;;;;;;9.73;5.78;;;10.70;56.10;;;;;;4708179;30;20068;-74
2021/03/15 09:12:02;;;;;;;8.57;6.45;;;10.80;56.80;;;;;;4725551;30;20037;-74
2021/03/15 09:14:30;;;;;;;8.75;5.80;;;11.00;56.70;;;;;;4721740;30;20048;-74
2021/03/15 09:17:01;;;;;;;6.40;5.10;;;11.20;56.10;;;;;;4706282;30;20034;-74
2021/03/15 09:19:43;;;;;;;9.02;5.05;;;11.40;55.50;;;;;;4718937;30;20041;-74
2021/03/15 09:22:34;;;;;;;10.38;4.50;;;11.50;54.50;;;;;;4719036;30;20091;-74
2021/03/15 09:25:19;;;;;;;9.85;5.43;;;11.60;53.50;;;;;;4720222;30;20025;-74
2021/03/15 09:27:50;;;;;;;7.88;4.60;;;11.80;53.50;;;;;;4722313;30;20071;-74
2021/03/15 09:30:24;;;;;;;15.75;4.40;;;11.90;53.00;;;;;;4728560;30;20037;-73
2021/03/15 09:32:59;;;;;;;8.70;4.68;;;12.00;52.70;;;;;;4729614;30;20033;-73
2021/03/15 09:35:27;;;;;;;5.47;3.75;;;12.20;51.40;;;;;;4728509;30;20040;-73
2021/03/15 09:38:08;;;;;;;7.47;4.47;;;12.20;51.60;;;;;;4710686;30;20117;-74
2021/03/15 09:40:39;;;;;;;8.90;4.45;;;12.20;50.80;;;;;;4732385;30;20059;-73
2021/03/15 09:43:05;;;;;;;10.52;3.47;;;12.20;50.80;;;;;;4732432;30;20029;-75
2021/03/15 09:45:38;;;;;;;8.00;4.63;;;12.40;50.60;;;;;;4714645;30;20029;-74
2021/03/15 09:48:20;;;;;;;10.45;4.28;;;12.50;50.10;;;;;;4720488;30;20090;-74
2021/03/15 09:50:52;;;;;;;10.75;4.05;;;12.70;51.10;;;;;;4729042;30;20032;-74
2021/03/15 09:53:21;;;;;;;9.50;4.22;;;13.00;49.00;;;;;;4713062;30;20040;-75
2021/03/15 09:56:08;;;;;;;6.50;4.05;;;13.00;47.90;;;;;;4714532;30;20032;-75
2021/03/15 09:58:39;;;;;;;4.65;3.80;;;12.90;48.00;;;;;;4726005;30;20033;-73
2021/03/15 10:01:16;;;;;;;8.15;4.47;;;12.90;47.70;;;;;;4713375;30;20043;-73
2021/03/15 10:04:01;;;;;;;8.55;4.35;;;12.90;48.10;;;;;;4726404;30;20033;-74
2021/03/15 10:06:45;;;;;;;8.45;4.50;;;13.10;47.20;;;;;;4727055;30;20044;-72
2021/03/15 10:09:31;;;;;;;38.03;6.63;;;13.10;47.10;;;;;;4722434;30;20056;-72
2021/03/15 10:12:21;;;;;;;5.45;3.70;;;13.40;47.60;;;;;;4714280;30;20041;-73
2021/03/15 10:15:04;;;;;;;6.55;3.83;;;13.60;45.90;;;;;;4713798;30;20124;-74
2021/03/15 10:17:47;;;;;;;5.55;3.40;;;13.60;46.00;;;;;;4729159;30;20079;-73
2021/03/15 10:20:30;;;;;;;7.97;4.35;;;13.50;44.80;;;;;;4715817;30;20041;-73
2021/03/15 10:22:57;;;;;;;10.48;4.38;;;13.20;45.30;;;;;;4732980;30;20088;-73
2021/03/15 10:25:28;;;;;;;7.30;3.95;;;13.00;45.80;;;;;;4729317;30;20100;-74
2021/03/15 10:27:57;;;;;;;8.05;4.50;;;13.00;46.20;;;;;;4730735;30;20025;-75
2021/03/15 10:30:29;;;;;;;7.05;3.85;;;13.00;45.70;;;;;;4719960;30;20137;-74
2021/03/15 10:32:56;;;;;;;10.15;3.63;;;12.80;46.20;;;;;;4712749;30;20112;-74
2021/03/15 10:35:23;;;;;;;;;;;12.80;46.40;;;;;;4726323;30;20033;-74
2021/03/15 10:38:02;;;;;;;8.18;4.40;;;12.80;46.30;;;;;;4712378;30;20205;-75
2021/03/15 10:40:46;;;;;;;10.60;3.70;;;12.90;46.20;;;;;;4714228;30;20037;-74
2021/03/15 10:43:25;;;;;;;9.85;4.03;;;12.90;46.30;;;;;;4710023;30;20025;-73
2021/03/15 10:46:11;;;;;;;7.53;4.00;;;13.00;46.80;;;;;;4700307;30;20060;-74
2021/03/15 10:48:37;;;;;;;8.88;4.07;;;13.10;45.60;;;;;;4728665;30;20033;-74
2021/03/15 10:51:05;;;;;;;9.73;3.67;;;13.20;46.20;;;;;;4713357;30;20029;-74
2021/03/15 10:53:51;;;;;;;5.18;3.40;;;13.30;45.60;;;;;;4719874;30;20064;-74
2021/03/15 10:56:24;;;;;;;7.93;3.35;;;13.10;44.20;;;;;;4724452;30;20017;-74
2021/03/15 10:58:56;;;;;;;5.90;3.83;;;13.10;44.20;;;;;;4702149;30;20096;-74
2021/03/15 11:01:26;;;;;;;27.08;5.03;;;13.00;44.60;;;;;;4714936;30;20139;-74
2021/03/15 11:04:10;;;;;;;5.53;3.22;;;12.90;44.60;;;;;;4713512;30;20033;-73
2021/03/15 11:06:40;;;;;;;9.55;4.00;;;13.10;45.80;;;;;;4712826;30;20134;-74
2021/03/15 11:09:17;;;;;;;7.00;4.38;;;13.10;46.10;;;;;;4708056;30;20037;-74
2021/03/15 11:11:53;;;;;;;7.18;4.65;;;13.20;46.10;;;;;;4713535;30;20029;-74
2021/03/15 11:14:19;;;;;;;13.20;4.60;;;13.30;46.80;;;;;;4727358;30;20037;-74
2021/03/15 11:17:00;;;;;;;6.38;4.40;;;13.50;47.00;;;;;;4719729;30;20308;-74
2021/03/15 11:19:29;;;;;;;4.75;3.80;;;13.60;46.80;;;;;;4716622;30;20037;-74
2021/03/15 11:21:55;;;;;;;7.80;3.40;;;13.70;44.70;;;;;;4703976;30;20121;-74
2021/03/15 11:24:31;;;;;;;9.48;4.50;;;13.70;43.80;;;;;;4715358;30;20090;-74
2021/03/15 11:27:32;;;;;;;6.85;3.75;;;13.70;44.10;;;;;;4712034;30;20119;-74
2021/03/15 11:29:59;;;;;;;8.38;4.82;;;13.60;44.10;;;;;;4697880;30;20136;-74
2021/03/15 11:32:34;;;;;;;6.35;4.28;;;13.60;44.40;;;;;;4721603;30;20141;-75
2021/03/15 11:35:20;;;;;;;6.00;4.40;;;13.80;45.00;;;;;;4713060;30;20175;-75
2021/03/15 11:37:56;;;;;;;9.70;5.35;;;13.90;44.90;;;;;;4723661;30;20039;-75
2021/03/15 11:40:42;;;;;;;9.65;4.03;;;13.80;44.60;;;;;;4713582;30;20029;-74
2021/03/15 11:43:12;;;;;;;7.47;3.92;;;13.70;43.50;;;;;;4738060;30;20074;-75
2021/03/15 11:45:43;;;;;;;7.97;3.65;;;13.60;43.20;;;;;;4720449;30;20265;-75
2021/03/15 11:48:09;;;;;;;8.23;4.72;;;13.80;44.40;;;;;;4717383;30;20041;-74
2021/03/15 11:50:47;;;;;;;9.45;4.20;;;14.00;44.90;;;;;;4702655;30;20037;-74
2021/03/15 11:53:20;;;;;;;9.52;3.88;;;14.00;43.90;;;;;;4725613;30;20095;-74
2021/03/15 11:55:45;;;;;;;8.00;4.00;;;14.30;43.80;;;;;;4726991;30;20033;-74
2021/03/15 11:58:14;;;;;;;16.67;4.55;;;14.50;42.90;;;;;;4715929;30;20032;-76
2021/03/15 12:00:41;;;;;;;6.68;3.92;;;14.40;43.40;;;;;;4705858;30;20216;-76
2021/03/15 12:03:22;;;;;;;13.60;4.25;;;14.30;43.00;;;;;;4716666;30;20108;-75
2021/03/15 12:06:07;;;;;;;4.68;3.20;;;14.60;43.00;;;;;;4729678;30;20133;-76
2021/03/15 12:08:49;;;;;;;5.03;3.15;;;14.50;41.20;;;;;;4715723;30;20174;-75
2021/03/15 12:11:16;;;;;;;4.65;3.25;;;14.40;39.90;;;;;;4720035;30;20017;-76
2021/03/15 12:13:42;;;;;;;5.47;2.97;;;14.20;40.80;;;;;;4717213;30;20041;-75
2021/03/15 12:16:10;;;;;;;6.53;3.58;;;14.10;41.20;;;;;;4715055;30;20092;-76
2021/03/15 12:18:36;;;;;;;7.70;2.97;;;14.00;41.20;;;;;;4721769;30;20170;-75
2021/03/15 12:21:07;;;;;;;7.68;3.30;;;14.00;41.60;;;;;;4711546;30;20060;-76
2021/03/15 12:23:34;;;;;;;8.23;2.97;;;13.90;41.40;;;;;;4715102;30;20029;-76
2021/03/15 12:26:02;;;;;;;5.50;2.65;;;13.90;39.40;;;;;;4714809;30;20100;-75
2021/03/15 12:28:38;;;;;;;3.38;1.85;;;13.80;38.60;;;;;;4712408;30;20040;-76
2021/03/15 12:31:13;;;;;;;4.00;1.85;;;13.70;38.20;;;;;;4712593;30;20321;-76
2021/03/15 12:33:39;;;;;;;7.95;1.88;;;13.60;38.30;;;;;;4710521;30;20029;-75
2021/03/15 12:36:06;;;;;;;3.45;1.42;;;13.80;38.10;;;;;;4721416;30;20040;-75
2021/03/15 12:38:32;;;;;;;5.55;1.90;;;13.80;37.90;;;;;;4725606;30;20037;-76
2021/03/15 12:40:58;;;;;;;2.75;1.65;;;13.90;38.20;;;;;;4709587;30;20243;-76
2021/03/15 12:43:25;;;;;;;6.50;1.87;;;14.00;38.50;;;;;;4715494;30;20029;-75
2021/03/15 12:45:55;;;;;;;9.85;2.15;;;14.00;38.30;;;;;;4702189;30;20048;-74
2021/03/15 12:48:21;;;;;;;3.80;1.85;;;14.00;38.00;;;;;;4711496;30;20029;-75
2021/03/15 12:50:47;;;;;;;8.52;2.10;;;13.80;37.60;;;;;;4697186;30;20358;-75
2021/03/15 12:53:15;;;;;;;6.47;2.20;;;13.80;38.40;;;;;;4710791;30;20033;-76
2021/03/15 12:56:09;;;;;;;28.30;2.60;;;13.70;38.30;;;;;;4693978;30;20037;-75
2021/03/15 12:58:38;;;;;;;6.40;2.13;;;13.60;38.40;;;;;;4670378;30;20033;-75
2021/03/15 13:01:15;;;;;;;4.78;1.75;;;13.50;38.70;;;;;;4677107;30;20129;-75
2021/03/15 13:03:48;;;;;;;3.85;2.08;;;13.40;38.80;;;;;;4671248;30;20034;-75
2021/03/15 13:06:16;;;;;;;3.63;2.03;;;13.60;38.80;;;;;;4679031;30;20374;-76
2021/03/15 13:09:00;;;;;;;6.72;1.80;;;13.60;38.20;;;;;;4684927;30;20040;-75
2021/03/15 13:11:43;;;;;;;10.77;1.80;;;13.70;38.70;;;;;;4692985;30;20031;-75
2021/03/15 13:14:25;;;;;;;5.38;1.63;;;13.70;38.00;;;;;;4694428;30;20108;-75
2021/03/15 13:17:01;;;;;;;7.05;2.20;;;13.70;37.60;;;;;;4705033;30;20033;-76
2021/03/15 13:19:27;;;;;;;6.43;2.17;;;13.80;38.40;;;;;;4710022;30;20045;-76
2021/03/15 13:21:54;;;;;;;4.18;1.98;;;13.80;38.00;;;;;;4690055;30;20034;-76
2021/03/15 13:24:20;;;;;;;4.57;1.80;;;13.80;37.60;;;;;;4710406;30;20217;-74
2021/03/15 13:26:51;;;;;;;5.45;1.60;;;13.70;37.80;;;;;;4706324;30;20388;-74
2021/03/15 13:29:22;;;;;;;15.35;2.65;;;13.80;37.40;;;;;;4704881;30;20061;-73
2021/03/15 13:31:48;;;;;;;4.00;1.50;;;14.00;38.20;;;;;;4688474;30;20269;-74
2021/03/15 13:34:17;;;;;;;5.50;1.83;;;14.10;37.00;;;;;;4714380;30;20105;-74
2021/03/15 13:36:43;;;;;;;6.15;1.73;;;14.30;37.00;;;;;;4713917;30;20244;-74
2021/03/15 13:39:47;;;;;;;46.30;3.72;;;14.50;35.90;;;;;;4716600;30;20040;-76
2021/03/15 13:42:13;;;;;;;18.27;2.15;;;14.60;36.60;;;;;;4721699;30;20036;-75
2021/03/15 13:45:10;;;;;;;21.55;3.63;;;14.80;36.40;;;;;;4705212;30;20064;-75
2021/03/15 13:47:36;;;;;;;25.48;2.85;;;15.00;35.50;;;;;;4704891;30;20049;-75
2021/03/15 13:50:03;;;;;;;5.40;1.75;;;15.20;35.80;;;;;;4707158;30;20060;-75
2021/03/15 13:52:30;;;;;;;5.97;1.92;;;15.00;35.40;;;;;;4701177;30;20268;-76
2021/03/15 13:54:55;;;;;;;27.20;3.92;;;14.80;34.70;;;;;;4724868;30;20050;-73
2021/03/15 13:57:21;;;;;;;7.78;2.17;;;14.60;36.40;;;;;;4713682;30;20087;-73
2021/03/15 14:00:13;;;;;;;9.18;2.55;;;14.60;35.80;;;;;;4713036;30;20232;-72
2021/03/15 14:02:58;;;;;;;6.63;3.13;;;14.50;36.00;;;;;;4728312;30;20082;-74
2021/03/15 14:05:26;;;;;;;10.60;4.30;;;14.40;36.70;;;;;;4714454;30;20032;-76
2021/03/15 14:07:52;;;;;;;5.72;2.13;;;14.30;36.80;;;;;;4713372;30;20267;-71
2021/03/15 14:10:18;;;;;;;19.33;3.10;;;14.20;36.60;;;;;;4725811;30;20075;-75
2021/03/15 14:12:48;;;;;;;13.20;3.08;;;14.00;36.80;;;;;;4726034;30;20037;-75
2021/03/15 14:15:20;;;;;;;6.25;2.60;;;13.80;37.30;;;;;;4718086;30;20144;-74
2021/03/15 14:18:06;;;;;;;25.98;4.30;;;13.90;37.90;;;;;;4675130;30;20042;-75
2021/03/15 14:20:36;;;;;;;16.48;3.45;;;13.90;38.20;;;;;;4675061;30;20342;-76
2021/03/15 14:23:03;;;;;;;43.78;4.63;;;14.10;38.40;;;;;;4660353;30;20121;-75
2021/03/15 14:25:28;;;;;;;12.30;2.10;;;14.00;38.10;;;;;;4633681;30;20100;-75
2021/03/15 14:28:17;;;;;;;4.82;2.17;;;13.90;38.70;;;;;;4641559;30;20048;-75
2021/03/15 14:31:06;;;;;;;9.63;1.88;;;13.90;38.40;;;;;;4640776;30;20043;-75
2021/03/15 14:33:35;;;;;;;9.75;2.67;;;14.00;38.50;;;;;;4640842;30;20043;-74
2021/03/15 14:36:01;;;;;;;12.40;1.73;;;14.00;38.80;;;;;;4620270;31;20070;-75
2021/03/15 14:38:45;;;;;;;24.95;3.08;;;13.80;38.70;;;;;;4626006;30;20322;-76
2021/03/15 14:41:18;;;;;;;13.90;2.40;;;13.80;39.00;;;;;;4636922;30;20027;-76
2021/03/15 14:43:44;;;;;;;14.90;2.67;;;13.60;39.50;;;;;;4640377;31;20042;-76
2021/03/15 14:46:15;;;;;;;8.05;2.58;;;13.80;40.10;;;;;;4644850;30;20051;-76
2021/03/15 14:49:00;;;;;;;4.50;1.73;;;13.90;40.00;;;;;;4631282;31;20163;-75
2021/03/15 14:51:33;;;;;;;6.78;1.90;;;14.10;40.10;;;;;;4639779;30;20111;-75
2021/03/15 14:54:04;;;;;;;6.90;1.60;;;14.20;40.00;;;;;;4643431;30;20058;-75
2021/03/15 14:56:35;;;;;;;4.55;1.50;;;14.30;40.10;;;;;;4661390;30;20085;-75
2021/03/15 14:59:04;;;;;;;4.18;1.65;;;14.20;39.50;;;;;;4657313;30;20224;-75
2021/03/15 15:01:33;;;;;;;5.45;1.75;;;14.20;39.80;;;;;;4657802;30;20026;-74
2021/03/15 15:04:08;;;;;;;2.63;2.05;;;14.30;39.50;;;;;;4659776;30;20039;-74
2021/03/15 15:06:35;;;;;;;4.50;1.63;;;14.40;39.40;;;;;;4715342;30;20215;-74
2021/03/15 15:09:02;;;;;;;;;;;14.40;39.50;;;;;;4699930;30;20034;-74
2021/03/15 15:11:39;;;;;;;5.25;1.50;;;14.40;39.30;;;;;;4694316;30;20431;-75
2021/03/15 15:14:05;;;;;;;3.95;1.40;;;14.40;40.00;;;;;;4696614;30;20080;-75
2021/03/15 15:16:38;;;;;;;5.53;1.52;;;14.40;39.40;;;;;;4719915;30;20025;-74
2021/03/15 15:19:05;;;;;;;2.33;1.02;;;14.50;39.20;;;;;;4709358;30;20385;-73
2021/03/15 15:21:33;;;;;;;1.67;1.35;;;14.60;39.30;;;;;;4700096;30;20096;-74
2021/03/15 15:23:59;;;;;;;4.22;1.95;;;14.60;38.60;;;;;;4712137;30;20190;-74
2021/03/15 15:26:25;;;;;;;3.88;1.80;;;14.40;39.10;;;;;;4705868;30;20064;-76
2021/03/15 15:28:51;;;;;;;4.80;1.30;;;14.40;39.40;;;;;;4721163;30;20088;-75
2021/03/15 15:31:17;;;;;;;3.17;1.50;;;14.30;39.80;;;;;;4692266;30;20053;-76
2021/03/15 15:33:42;;;;;;;3.53;1.58;;;14.40;40.00;;;;;;4708829;30;20052;-76
2021/03/15 15:36:08;;;;;;;2.08;1.40;;;14.60;39.60;;;;;;4698009;30;20025;-74
2021/03/15 15:38:34;;;;;;;7.07;2.58;;;14.50;40.00;;;;;;4723167;30;20033;-74
2021/03/15 15:41:00;;;;;;;3.20;1.73;;;14.50;40.50;;;;;;4708873;30;20099;-75
2021/03/15 15:43:25;;;;;;;4.93;2.70;;;14.60;40.90;;;;;;4719024;30;20306;-75
2021/03/15 15:45:51;;;;;;;4.93;2.53;;;14.50;41.50;;;;;;4710287;30;20621;-75
2021/03/15 15:48:17;;;;;;;7.13;2.33;;;14.30;41.90;;;;;;4712266;30;20037;-75
2021/03/15 15:50:42;;;;;;;5.30;2.60;;;14.10;42.90;;;;;;4710185;30;20061;-76
2021/03/15 15:53:10;;;;;;;7.32;2.88;;;13.90;42.70;;;;;;4716531;30;20036;-75
2021/03/15 15:55:48;;;;;;;3.45;2.13;;;13.80;43.00;;;;;;4695628;30;20057;-76
2021/03/15 15:58:14;;;;;;;8.05;2.40;;;13.70;43.30;;;;;;4707079;30;20072;-77
2021/03/15 16:00:40;;;;;;;5.00;2.20;;;13.50;43.60;;;;;;4725151;30;20049;-76
2021/03/15 16:03:06;;;;;;;6.18;2.83;;;13.40;43.70;;;;;;4706315;30;20033;-77
2021/03/15 16:05:33;;;;;;;5.28;2.00;;;13.30;44.20;;;;;;4731387;30;20309;-76
2021/03/15 16:07:59;;;;;;;2.83;1.80;;;13.10;44.60;;;;;;4729594;30;20378;-77
2021/03/15 16:10:25;;;;;;;6.82;2.25;;;13.00;44.70;;;;;;4709768;30;20046;-76
2021/03/15 16:12:50;;;;;;;4.13;2.35;;;12.90;45.00;;;;;;4703237;30;20059;-76
2021/03/15 16:15:16;;;;;;;3.30;2.28;;;12.90;45.40;;;;;;4690961;30;20133;-76
2021/03/15 16:17:42;;;;;;;8.93;2.15;;;12.90;45.60;;;;;;4707776;30;20119;-77
2021/03/15 16:20:08;;;;;;;6.65;2.30;;;12.80;45.40;;;;;;4721656;30;20225;-76
2021/03/15 16:22:36;;;;;;;5.53;1.80;;;12.80;45.70;;;;;;4716427;30;20103;-77
2021/03/15 16:25:06;;;;;;;7.30;2.22;;;12.80;45.70;;;;;;4724827;30;20106;-76
2021/03/15 16:27:34;;;;;;;3.25;1.77;;;12.80;45.70;;;;;;4727131;30;20041;-76
2021/03/15 16:29:59;;;;;;;6.18;1.83;;;12.80;45.50;;;;;;4714194;30;20037;-76
2021/03/15 16:32:25;;;;;;;8.48;1.90;;;12.80;45.60;;;;;;4708825;30;20095;-76
2021/03/15 16:34:51;;;;;;;4.97;1.83;;;12.70;45.80;;;;;;4693993;30;20324;-76
2021/03/15 16:37:17;;;;;;;9.27;2.45;;;12.60;45.90;;;;;;4720290;30;20036;-76
2021/03/15 16:39:43;;;;;;;5.13;1.98;;;12.60;46.10;;;;;;4724985;30;20063;-76
2021/03/15 16:42:09;;;;;;;5.70;2.10;;;12.50;46.00;;;;;;4709596;30;20252;-74
2021/03/15 16:44:35;;;;;;;7.78;2.22;;;12.40;46.10;;;;;;4711046;30;20029;-75
2021/03/15 16:47:01;;;;;;;6.43;2.13;;;12.30;46.00;;;;;;4715811;30;20260;-74
2021/03/15 16:49:26;;;;;;;6.80;2.08;;;12.30;46.10;;;;;;4714072;30;20100;-74
2021/03/15 16:51:52;;;;;;;6.80;2.58;;;12.30;46.20;;;;;;4716107;30;20044;-74
2021/03/15 16:54:18;;;;;;;4.80;2.13;;;12.30;46.30;;;;;;4711922;30;20033;-74
2021/03/15 16:56:44;;;;;;;8.93;2.33;;;12.20;46.20;;;;;;4711169;30;20107;-76